createdAt,value
2023-02-05T00:06:57.066Z,97965.75
2023-02-05T00:17:03.402Z,97943.72
2023-02-05T00:27:11.289Z,97913.19
2023-02-05T00:37:17.659Z,97892.94
2023-02-05T00:47:24.004Z,97863.31
2023-02-05T00:57:30.353Z,97810.78
2023-02-05T01:07:37.710Z,97771.03
2023-02-05T01:17:44.087Z,97727.06
2023-02-05T01:27:50.496Z,97660.13
2023-02-05T01:37:56.985Z,97622.03
2023-02-05T01:48:05.175Z,97572.94
2023-02-05T01:58:11.744Z,97531.41
2023-02-05T02:08:18.146Z,97522.19
2023-02-05T02:18:28.153Z,97512.09
2023-02-05T02:28:43.740Z,97503.63
2023-02-05T02:39:18.300Z,97515.53
2023-02-05T02:49:41.736Z,97551.25
2023-02-05T02:59:50.103Z,97575.91
2023-02-05T03:10:22.254Z,97602.22
2023-02-05T03:20:31.427Z,97618.38
2023-02-05T03:30:50.196Z,97621.78
2023-02-05T03:41:00.659Z,97623.44
2023-02-05T03:51:24.702Z,97629.34
2023-02-05T04:01:31.343Z,97656.47
2023-02-05T04:11:38.961Z,97683.50
2023-02-05T04:21:45.731Z,97701.22
2023-02-05T04:31:52.135Z,97707.13
2023-02-05T04:41:58.595Z,97729.87
2023-02-05T04:52:04.965Z,97783.81
2023-02-05T05:02:11.293Z,97824.03
2023-02-05T05:12:17.672Z,97842.56
2023-02-05T05:22:24.616Z,97849.28
2023-02-05T05:32:30.916Z,97859.13
2023-02-05T05:42:56.045Z,97864.00
2023-02-05T05:53:02.386Z,97858.13
2023-02-05T06:03:08.707Z,97892.38
2023-02-05T06:13:15.260Z,97906.69
2023-02-05T06:23:21.582Z,97899.97
2023-02-05T06:33:27.885Z,97922.56
2023-02-05T06:43:34.146Z,97942.94
2023-02-05T06:53:40.526Z,97915.59
2023-02-05T07:03:46.900Z,97883.13
2023-02-05T07:13:53.306Z,97831.09
2023-02-05T07:23:59.673Z,97764.59
2023-02-05T07:34:06.032Z,97670.47
2023-02-05T07:44:12.554Z,97638.63
2023-02-05T07:54:18.878Z,97746.44
2023-02-05T08:04:25.335Z,97825.25
2023-02-05T08:14:32.485Z,97757.09
2023-02-05T08:24:39.487Z,97864.56
2023-02-05T08:34:45.958Z,98009.09
2023-02-05T08:44:52.865Z,98078.38
2023-02-05T08:54:59.286Z,98260.50
2023-02-05T09:05:09.277Z,98353.81
2023-02-05T09:15:15.960Z,98508.63
2023-02-05T09:25:22.256Z,98540.00
2023-02-05T09:35:28.831Z,98550.34
2023-02-05T09:46:01.452Z,98613.72
2023-02-05T09:56:09.639Z,98691.41
2023-02-05T10:06:46.864Z,98731.97
2023-02-05T10:17:32.808Z,98737.91
2023-02-05T10:27:47.979Z,98772.06
2023-02-05T10:37:58.100Z,98798.94
2023-02-05T10:48:35.011Z,98757.91
2023-02-05T10:58:50.456Z,98750.41
2023-02-05T11:08:56.822Z,98736.16
2023-02-05T11:19:03.284Z,98758.78
2023-02-05T11:29:24.962Z,98750.59
2023-02-05T11:39:37.806Z,98739.25
2023-02-05T11:49:44.142Z,98842.34
2023-02-05T11:59:56.414Z,98869.41
2023-02-05T12:10:02.718Z,98907.09
2023-02-05T12:20:29.564Z,98924.66
2023-02-05T12:30:54.581Z,98914.38
2023-02-05T12:41:14.019Z,98914.28
2023-02-05T12:52:03.152Z,98920.78
2023-02-05T13:02:29.827Z,98922.19
2023-02-05T13:12:41.854Z,98930.44
2023-02-05T13:23:15.547Z,98893.69
2023-02-05T13:33:21.873Z,98919.28
2023-02-05T13:43:43.615Z,98996.50
2023-02-05T13:53:55.851Z,99045.12
2023-02-05T14:04:09.142Z,99110.25
2023-02-05T14:14:23.514Z,99168.38
2023-02-05T14:24:44.664Z,99223.16
2023-02-05T14:35:02.778Z,99284.31
2023-02-05T14:45:18.270Z,99314.22
2023-02-05T14:55:33.713Z,99308.22
2023-02-05T15:05:46.257Z,99341.88
2023-02-05T15:16:07.976Z,99341.88
2023-02-05T15:26:33.399Z,99328.19
2023-02-05T15:36:55.231Z,99329.81
2023-02-05T15:47:04.380Z,99330.87
2023-02-05T15:57:19.742Z,99281.69
2023-02-05T16:07:29.017Z,99300.66
2023-02-05T16:17:47.385Z,99295.50
2023-02-05T16:27:54.781Z,99270.97
2023-02-05T16:38:02.511Z,99287.66
2023-02-05T16:48:27.100Z,99294.34
2023-02-05T16:58:39.517Z,99289.41
2023-02-05T17:08:54.874Z,99283.44
2023-02-05T17:19:05.596Z,99269.09
2023-02-05T17:29:16.636Z,99249.28
2023-02-05T17:39:23.021Z,99256.44
2023-02-05T17:49:29.642Z,99248.81
2023-02-05T17:59:36.694Z,99261.22
2023-02-05T18:09:43.197Z,99262.13
2023-02-05T18:19:49.563Z,99270.59
2023-02-05T18:29:56.161Z,99278.41
2023-02-05T18:40:02.505Z,99281.91
2023-02-05T18:50:10.328Z,99273.19
2023-02-05T19:00:16.956Z,99286.91
2023-02-05T19:10:23.451Z,99275.34
2023-02-05T19:20:29.786Z,99276.84
2023-02-05T19:30:37.396Z,99269.59
2023-02-05T19:40:44.135Z,99290.84
2023-02-05T19:50:50.635Z,99271.00
2023-02-05T20:00:56.943Z,99285.09
2023-02-05T20:11:04.321Z,99289.22
2023-02-05T20:21:13.258Z,99289.38
2023-02-05T20:31:34.880Z,99310.31
2023-02-05T20:41:41.796Z,99319.28
2023-02-05T20:51:48.411Z,99342.06
2023-02-05T21:01:54.804Z,99351.59
2023-02-05T21:12:01.386Z,99349.06
2023-02-05T21:22:07.703Z,99375.47
2023-02-05T21:32:13.991Z,99401.09
2023-02-05T21:42:20.357Z,99427.81
2023-02-05T21:52:26.705Z,99478.19
2023-02-05T22:02:32.998Z,99483.19
2023-02-05T22:12:39.317Z,99491.19
2023-02-05T22:22:45.672Z,99507.59
2023-02-05T22:32:52.426Z,99501.72
2023-02-05T22:42:58.744Z,99489.25
2023-02-05T22:53:05.336Z,99475.41
2023-02-05T23:03:11.619Z,99473.88
2023-02-05T23:13:18.034Z,99459.69
2023-02-05T23:23:24.306Z,99458.50
2023-02-05T23:33:31.225Z,99456.38
2023-02-05T23:43:38.397Z,99460.34
2023-02-05T23:53:44.716Z,99471.69
